Time;durP1;ratioP1;P1;durP2;ratioP2;P2;SDS_P1;SDS_P2;PMS_P1;PMS_P2;Temp;Humidity;BMP_temperature;BMP_pressure;BME280_temperature;BME280_humidity;BME280_pressure;Samples;Min_cycle;Max_cycle;Signal;HPM_P1;HPM_P2
2023/11/28 00:02:01;;;;;;;4.25;3.85;;;;;;;-146.61;100.00;58846.50;6170669;23;20705;-79
2023/11/28 00:04:27;;;;;;;4.88;4.18;;;;;;;-146.61;100.00;58846.50;6144100;23;20047;-77
2023/11/28 00:06:54;;;;;;;4.05;3.63;;;;;;;-146.61;100.00;58846.50;6148314;23;20021;-80
2023/11/28 00:09:20;;;;;;;4.47;4.07;;;;;;;-146.61;100.00;58846.50;6141631;23;20100;-79
2023/11/28 00:11:47;;;;;;;5.13;3.60;;;;;;;-146.61;100.00;58846.50;6170007;23;20317;-78
2023/11/28 00:14:13;;;;;;;5.63;3.78;;;;;;;-146.61;100.00;58846.50;6168473;23;20017;-78
2023/11/28 00:16:43;;;;;;;4.65;4.18;;;;;;;-146.61;100.00;58846.50;6142034;23;20036;-80
2023/11/28 00:19:09;;;;;;;4.03;3.72;;;;;;;-146.61;100.00;58846.50;6168713;23;20061;-78
2023/11/28 00:21:36;;;;;;;4.88;3.95;;;;;;;-146.61;100.00;58846.50;6163838;23;20021;-79
2023/11/28 00:24:03;;;;;;;5.63;4.15;;;;;;;-146.61;100.00;58846.50;6171082;23;20097;-81
2023/11/28 00:26:29;;;;;;;4.10;3.70;;;;;;;-146.61;100.00;58846.50;6171742;23;20052;-79
2023/11/28 00:28:56;;;;;;;4.22;3.83;;;;;;;-146.61;100.00;58846.50;6169611;23;20045;-79
2023/11/28 00:31:23;;;;;;;5.10;4.15;;;;;;;-146.61;100.00;58846.50;6145455;23;20087;-82
2023/11/28 00:33:49;;;;;;;3.17;2.88;;;;;;;-146.61;100.00;58846.50;6173138;23;20025;-79
2023/11/28 00:36:17;;;;;;;3.45;3.15;;;;;;;-146.61;100.00;58846.50;6123434;23;20020;-78
2023/11/28 00:38:44;;;;;;;3.65;3.30;;;;;;;-146.61;100.00;58846.50;6172462;23;20020;-78
2023/11/28 00:41:11;;;;;;;4.07;3.67;;;;;;;-146.61;100.00;58846.50;6172359;23;20021;-78
2023/11/28 00:43:38;;;;;;;3.58;3.28;;;;;;;-146.61;100.00;58846.50;6172201;23;20019;-78
2023/11/28 00:46:06;;;;;;;4.97;3.58;;;;;;;-146.61;100.00;58846.50;6173276;23;20051;-77
2023/11/28 00:48:32;;;;;;;4.25;3.42;;;;;;;-146.61;100.00;58846.50;6145697;23;20036;-79
2023/11/28 00:50:59;;;;;;;3.65;3.30;;;;;;;-146.61;100.00;58846.50;6171645;23;20068;-79
2023/11/28 00:53:25;;;;;;;3.78;3.08;;;;;;;-146.61;100.00;58846.50;6171293;23;20077;-80
2023/11/28 00:55:52;;;;;;;3.25;2.88;;;;;;;-146.61;100.00;58846.50;6143500;23;20112;-82
2023/11/28 00:58:19;;;;;;;3.70;3.40;;;;;;;-146.61;100.00;58846.50;6172545;23;20020;-81
2023/11/28 01:00:47;;;;;;;4.80;3.30;;;;;;;-146.61;100.00;58846.50;6144132;23;20048;-79
2023/11/28 01:03:14;;;;;;;3.75;3.08;;;;;;;-146.61;100.00;58846.50;6150455;23;20020;-80
2023/11/28 01:05:40;;;;;;;3.33;2.90;;;;;;;-146.61;100.00;58846.50;6176037;23;20072;-80
2023/11/28 01:08:08;;;;;;;5.22;3.28;;;;;;;-146.61;100.00;58846.50;6173698;23;20017;-80
2023/11/28 01:10:35;;;;;;;4.18;3.30;;;;;;;-146.61;100.00;58846.50;6176645;23;20474;-81
2023/11/28 01:13:01;;;;;;;3.92;3.22;;;;;;;-146.61;100.00;58846.50;6176866;23;20467;-79
2023/11/28 01:15:27;;;;;;;5.35;3.75;;;;;;;-146.61;100.00;58846.50;6173385;23;20017;-77
2023/11/28 01:17:54;;;;;;;4.30;3.08;;;;;;;-146.61;100.00;58846.50;6172544;23;20104;-77
2023/11/28 01:20:21;;;;;;;3.58;3.28;;;;;;;-146.61;100.00;58846.50;6173823;23;20507;-78
2023/11/28 01:22:47;;;;;;;6.55;3.20;;;;;;;-146.61;100.00;58846.50;6142646;23;20013;-77
2023/11/28 01:25:14;;;;;;;3.85;2.80;;;;;;;-146.61;100.00;58846.50;6175441;23;20060;-78
2023/11/28 01:27:41;;;;;;;4.97;3.10;;;;;;;-146.61;100.00;58846.50;6147163;23;20400;-78
2023/11/28 01:30:12;;;;;;;3.20;2.67;;;;;;;-146.61;100.00;58846.50;6148742;23;20029;-79
2023/11/28 01:32:39;;;;;;;3.60;3.30;;;;;;;-146.61;100.00;58846.50;6174157;23;20021;-79
2023/11/28 01:35:05;;;;;;;3.22;2.88;;;;;;;-146.61;100.00;58846.50;6175171;23;20054;-80
2023/11/28 01:37:32;;;;;;;3.05;2.30;;;;;;;-146.61;100.00;58846.50;6173796;23;20328;-80
2023/11/28 01:39:58;;;;;;;2.92;2.67;;;;;;;-146.61;100.00;58846.50;6173677;23;20184;-78
2023/11/28 01:42:26;;;;;;;3.83;3.42;;;;;;;-146.61;100.00;58846.50;6173087;23;20067;-82
2023/11/28 01:44:52;;;;;;;7.30;4.55;;;;;;;-146.61;100.00;58846.50;6146723;23;20109;-80
2023/11/28 01:47:19;;;;;;;3.67;2.53;;;;;;;-146.61;100.00;58846.50;6174097;23;20067;-78
2023/11/28 01:49:46;;;;;;;3.13;2.30;;;;;;;-146.61;100.00;58846.50;6170656;23;20671;-78
2023/11/28 01:52:14;;;;;;;4.32;3.67;;;;;;;-146.61;100.00;58846.50;6143538;23;20017;-79
2023/11/28 01:54:43;;;;;;;3.15;2.63;;;;;;;-146.61;100.00;58846.50;6170647;23;20104;-78
2023/11/28 01:57:12;;;;;;;4.20;2.78;;;;;;;-146.61;100.00;58846.50;6145691;23;20103;-78
2023/11/28 01:59:41;;;;;;;2.88;2.50;;;;;;;-146.61;100.00;58846.50;6169511;23;20025;-77
2023/11/28 02:02:07;;;;;;;4.00;3.03;;;;;;;-146.61;100.00;58846.50;6169748;23;20051;-79
2023/11/28 02:04:39;;;;;;;2.95;2.60;;;;;;;-146.61;100.00;58846.50;6170935;23;20503;-79
2023/11/28 02:07:08;;;;;;;4.30;2.70;;;;;;;-146.61;100.00;58846.50;6171054;23;20088;-77
2023/11/28 02:09:37;;;;;;;2.97;2.78;;;;;;;-146.61;100.00;58846.50;6146110;23;20462;-79
2023/11/28 02:12:04;;;;;;;4.80;3.13;;;;;;;-146.61;100.00;58846.50;6173568;23;20021;-77
2023/11/28 02:14:31;;;;;;;6.15;3.63;;;;;;;-146.61;100.00;58846.50;6146035;23;20548;-82
2023/11/28 02:16:58;;;;;;;3.83;3.40;;;;;;;-146.61;100.00;58846.50;6146508;23;20648;-78
2023/11/28 02:19:24;;;;;;;3.53;3.20;;;;;;;-146.61;100.00;58846.50;6171780;23;20010;-77
2023/11/28 02:21:51;;;;;;;3.65;2.58;;;;;;;-146.61;100.00;58846.50;6169789;23;20064;-78
2023/11/28 02:24:19;;;;;;;5.10;3.55;;;;;;;-146.61;100.00;58846.50;6171671;23;20139;-78
2023/11/28 02:26:45;;;;;;;5.00;3.55;;;;;;;-146.61;100.00;58846.50;6172039;23;20021;-80
2023/11/28 02:29:12;;;;;;;5.70;3.72;;;;;;;-146.61;100.00;58846.50;6167711;23;20013;-78
2023/11/28 02:31:38;;;;;;;6.60;4.43;;;;;;;-146.61;100.00;58846.50;6171186;23;20121;-78
2023/11/28 02:34:08;;;;;;;7.22;3.88;;;;;;;-146.61;100.00;58846.50;6173587;23;20071;-80
2023/11/28 02:36:34;;;;;;;6.13;3.97;;;;;;;-146.61;100.00;58846.50;6170435;23;20461;-77
2023/11/28 02:39:01;;;;;;;7.32;4.55;;;;;;;-146.61;100.00;58846.50;6172575;23;20502;-79
2023/11/28 02:41:28;;;;;;;5.25;3.95;;;;;;;-146.61;100.00;58846.50;6172061;23;20104;-80
2023/11/28 02:43:54;;;;;;;6.00;4.32;;;;;;;-146.61;100.00;58846.50;6172668;23;20395;-78
2023/11/28 02:46:21;;;;;;;8.75;4.50;;;;;;;-146.61;100.00;58846.50;6143567;23;20067;-79
2023/11/28 02:48:48;;;;;;;6.13;4.68;;;;;;;-146.61;100.00;58846.50;6143176;23;20021;-78
2023/11/28 02:51:19;;;;;;;5.32;4.20;;;;;;;-146.61;100.00;58846.50;6171835;23;20017;-79
2023/11/28 02:53:46;;;;;;;8.32;5.15;;;;;;;-146.61;100.00;58846.50;6144279;23;20021;-79
2023/11/28 02:56:13;;;;;;;5.15;3.95;;;;;;;-146.61;100.00;58846.50;6145517;23;20518;-80
2023/11/28 02:58:40;;;;;;;5.97;4.13;;;;;;;-146.61;100.00;58846.50;6170242;23;20013;-79
2023/11/28 03:01:07;;;;;;;7.60;4.82;;;;;;;-146.61;100.00;58846.50;6171087;23;20092;-79
2023/11/28 03:03:33;;;;;;;9.32;4.13;;;;;;;-146.61;100.00;58846.50;6143976;23;20032;-78
2023/11/28 03:06:00;;;;;;;4.35;3.58;;;;;;;-146.61;100.00;58846.50;6171540;23;20108;-79
2023/11/28 03:08:26;;;;;;;8.18;5.18;;;;;;;-146.61;100.00;58846.50;6144193;23;20059;-79
2023/11/28 03:10:53;;;;;;;8.27;4.55;;;;;;;-146.61;100.00;58846.50;6168520;23;20055;-79
2023/11/28 03:13:19;;;;;;;4.80;3.38;;;;;;;-146.61;100.00;58846.50;6171176;23;20021;-79
2023/11/28 03:15:47;;;;;;;6.88;4.57;;;;;;;-146.61;100.00;58846.50;6142960;23;20021;-78
2023/11/28 03:18:16;;;;;;;6.68;4.95;;;;;;;-146.61;100.00;58846.50;6144925;23;20036;-79
2023/11/28 03:20:43;;;;;;;5.65;4.38;;;;;;;-146.61;100.00;58846.50;6167996;23;20017;-80
2023/11/28 03:23:09;;;;;;;12.95;5.15;;;;;;;-146.61;100.00;58846.50;6170550;23;20063;-78
2023/11/28 03:25:36;;;;;;;5.28;4.25;;;;;;;-146.61;100.00;58846.50;6169915;23;20021;-79
2023/11/28 03:28:03;;;;;;;9.82;5.38;;;;;;;-146.61;100.00;58846.50;6143906;23;20399;-80
2023/11/28 03:30:32;;;;;;;7.25;4.20;;;;;;;-146.61;100.00;58846.50;6143605;23;20094;-80
2023/11/28 03:32:59;;;;;;;5.70;3.85;;;;;;;-146.61;100.00;58846.50;6165133;23;20051;-78
2023/11/28 03:35:27;;;;;;;6.97;4.10;;;;;;;-146.61;100.00;58846.50;6169061;23;20027;-79
2023/11/28 03:37:53;;;;;;;7.85;4.85;;;;;;;-146.61;100.00;58846.50;6143144;23;20029;-78
2023/11/28 03:40:20;;;;;;;7.95;4.57;;;;;;;-146.61;100.00;58846.50;6170832;23;20028;-79
2023/11/28 03:42:46;;;;;;;6.55;4.32;;;;;;;-146.61;100.00;58846.50;6170050;23;20029;-78
2023/11/28 03:45:13;;;;;;;7.53;4.30;;;;;;;-146.61;100.00;58846.50;6170196;23;20017;-79
2023/11/28 03:47:40;;;;;;;7.25;4.53;;;;;;;-146.61;100.00;58846.50;6171452;23;20021;-81
2023/11/28 03:50:08;;;;;;;7.28;4.65;;;;;;;-146.61;100.00;58846.50;6146367;23;20131;-80
2023/11/28 03:52:35;;;;;;;5.25;4.20;;;;;;;-146.61;100.00;58846.50;6170755;23;20016;-77
2023/11/28 03:55:05;;;;;;;6.93;4.57;;;;;;;-146.61;100.00;58846.50;6171841;23;20021;-77
2023/11/28 03:57:31;;;;;;;7.60;4.65;;;;;;;-146.61;100.00;58846.50;6142614;23;20013;-80
2023/11/28 03:59:58;;;;;;;11.13;6.00;;;;;;;-146.61;100.00;58846.50;6172230;23;20077;-77
2023/11/28 04:02:25;;;;;;;8.77;5.38;;;;;;;-146.61;100.00;58846.50;6168450;23;20036;-77
2023/11/28 04:04:51;;;;;;;13.20;5.57;;;;;;;-146.61;100.00;58846.50;6143974;23;20765;-77
2023/11/28 04:07:18;;;;;;;8.02;5.25;;;;;;;-146.61;100.00;58846.50;6175345;23;20013;-77
2023/11/28 04:09:44;;;;;;;10.02;5.43;;;;;;;-146.61;100.00;58846.50;6171936;23;20031;-77
2023/11/28 04:12:14;;;;;;;7.32;5.20;;;;;;;-146.61;100.00;58846.50;6145352;23;20526;-79
2023/11/28 04:14:43;;;;;;;11.82;5.63;;;;;;;-146.61;100.00;58846.50;6145709;23;20025;-80
2023/11/28 04:17:10;;;;;;;8.88;5.32;;;;;;;-146.61;100.00;58846.50;6174209;23;20503;-77
2023/11/28 04:19:36;;;;;;;11.13;5.32;;;;;;;-146.61;100.00;58846.50;6144518;23;20017;-80
2023/11/28 04:22:02;;;;;;;10.35;5.93;;;;;;;-146.61;100.00;58846.50;6170370;23;20021;-78
2023/11/28 04:24:29;;;;;;;10.50;5.35;;;;;;;-146.61;100.00;58846.50;6172617;23;20091;-77
2023/11/28 04:26:55;;;;;;;10.25;5.50;;;;;;;-146.61;100.00;58846.50;6146428;23;20055;-80
2023/11/28 04:29:24;;;;;;;9.30;5.32;;;;;;;-146.61;100.00;58846.50;6173262;23;20013;-77
2023/11/28 04:31:50;;;;;;;9.55;5.68;;;;;;;-146.61;100.00;58846.50;6172940;23;20026;-77
2023/11/28 04:34:17;;;;;;;10.27;4.97;;;;;;;-146.61;100.00;58846.50;6169551;23;20024;-82
2023/11/28 04:36:45;;;;;;;9.75;4.93;;;;;;;-146.61;100.00;58846.50;6170970;23;20024;-77
2023/11/28 04:39:11;;;;;;;9.57;4.55;;;;;;;-146.61;100.00;58846.50;6147036;23;20025;-79
2023/11/28 04:41:38;;;;;;;8.45;5.70;;;;;;;-146.61;100.00;58846.50;6171248;23;20024;-77
2023/11/28 04:44:05;;;;;;;9.55;5.85;;;;;;;-146.61;100.00;58846.50;6147510;23;20124;-78
2023/11/28 04:46:32;;;;;;;7.63;5.07;;;;;;;-146.61;100.00;58846.50;6172905;23;20044;-78
2023/11/28 04:48:58;;;;;;;8.90;4.82;;;;;;;-146.61;100.00;58846.50;6171417;23;20067;-78
2023/11/28 04:51:25;;;;;;;8.20;4.20;;;;;;;-146.61;100.00;58846.50;6148017;23;20021;-77
2023/11/28 04:53:51;;;;;;;12.57;4.50;;;;;;;-146.61;100.00;58846.50;6174318;23;20024;-80
2023/11/28 04:56:17;;;;;;;10.68;4.65;;;;;;;-146.61;100.00;58846.50;6175348;23;20036;-80
2023/11/28 04:58:44;;;;;;;10.07;5.30;;;;;;;-146.61;100.00;58846.50;6171407;23;20451;-79
2023/11/28 05:01:10;;;;;;;10.07;4.72;;;;;;;-146.61;100.00;58846.50;6171011;23;20037;-80
2023/11/28 05:03:37;;;;;;;8.45;4.10;;;;;;;-146.61;100.00;58846.50;6171085;23;20400;-82
2023/11/28 05:06:05;;;;;;;10.75;4.78;;;;;;;-146.61;100.00;58846.50;6147658;23;20552;-77
2023/11/28 05:08:33;;;;;;;11.98;5.32;;;;;;;-146.61;100.00;58846.50;6172719;23;20680;-80
2023/11/28 05:11:04;;;;;;;8.00;4.72;;;;;;;-146.61;100.00;58846.50;6144573;23;20101;-78
2023/11/28 05:13:30;;;;;;;7.28;3.50;;;;;;;-146.61;100.00;58846.50;6172003;23;20056;-78
2023/11/28 05:15:57;;;;;;;6.47;3.95;;;;;;;-146.61;100.00;58846.50;6171194;23;20024;-79
2023/11/28 05:18:23;;;;;;;7.57;3.75;;;;;;;-146.61;100.00;58846.50;6172911;23;20025;-78
2023/11/28 05:20:50;;;;;;;8.48;4.10;;;;;;;-146.61;100.00;58846.50;6171570;23;20017;-77
2023/11/28 05:23:19;;;;;;;8.02;4.28;;;;;;;-146.61;100.00;58846.50;6172350;23;20021;-81
2023/11/28 05:25:48;;;;;;;5.40;2.78;;;;;;;-146.61;100.00;58846.50;6170603;23;20032;-82
2023/11/28 05:28:15;;;;;;;7.68;3.95;;;;;;;-146.61;100.00;58846.50;6171830;23;20465;-81
2023/11/28 05:30:41;;;;;;;6.00;3.42;;;;;;;-146.61;100.00;58846.50;6170724;23;20048;-78
2023/11/28 05:33:08;;;;;;;4.10;3.30;;;;;;;-146.61;100.00;58846.50;6172730;23;20021;-78
2023/11/28 05:35:37;;;;;;;8.48;3.80;;;;;;;-146.61;100.00;58846.50;6146245;23;20530;-78
2023/11/28 05:38:04;;;;;;;7.43;3.72;;;;;;;-146.61;100.00;58846.50;6171922;23;20009;-79
2023/11/28 05:40:30;;;;;;;11.23;3.38;;;;;;;-146.61;100.00;58846.50;6169266;23;20021;-81
2023/11/28 05:42:57;;;;;;;11.57;4.10;;;;;;;-146.61;100.00;58846.50;6171676;23;20431;-79
2023/11/28 05:45:24;;;;;;;6.82;3.50;;;;;;;-146.61;100.00;58846.50;6172030;23;20020;-78
2023/11/28 05:47:52;;;;;;;6.40;2.97;;;;;;;-146.61;100.00;58846.50;6169793;23;20021;-80
2023/11/28 05:50:22;;;;;;;6.97;2.72;;;;;;;-146.61;100.00;58846.50;6169594;23;20047;-79
2023/11/28 05:52:51;;;;;;;6.47;2.40;;;;;;;-146.61;100.00;58846.50;6145213;23;20013;-78
2023/11/28 05:55:20;;;;;;;4.72;2.22;;;;;;;-146.61;100.00;58846.50;6145941;23;20031;-78
2023/11/28 05:57:47;;;;;;;6.70;2.83;;;;;;;-146.61;100.00;58846.50;6170691;23;20021;-81
2023/11/28 06:00:14;;;;;;;4.72;3.08;;;;;;;-146.61;100.00;58846.50;6170510;23;20132;-79
2023/11/28 06:02:45;;;;;;;2.55;2.17;;;;;;;-146.61;100.00;58846.50;6165171;23;20028;-80
2023/11/28 06:05:12;;;;;;;5.85;2.80;;;;;;;-146.61;100.00;58846.50;6162275;23;20505;-79
2023/11/28 06:07:49;;;;;;;1.55;1.45;;;;;;;-146.61;100.00;58846.50;6140877;23;20035;-81
2023/11/28 06:10:16;;;;;;;4.57;1.98;;;;;;;-146.61;100.00;58846.50;6168008;23;20013;-79
2023/11/28 06:12:42;;;;;;;4.53;2.45;;;;;;;-146.61;100.00;58846.50;6168637;23;20025;-80
2023/11/28 06:15:09;;;;;;;3.15;2.60;;;;;;;-146.61;100.00;58846.50;6167488;23;20064;-81
2023/11/28 06:17:36;;;;;;;3.75;1.63;;;;;;;-146.61;100.00;58846.50;6171042;23;20075;-80
2023/11/28 06:20:04;;;;;;;4.90;2.25;;;;;;;-146.61;100.00;58846.50;6170913;23;20044;-80
2023/11/28 06:22:31;;;;;;;4.13;1.83;;;;;;;-146.61;100.00;58846.50;6171098;23;20025;-79
2023/11/28 06:24:58;;;;;;;3.60;2.40;;;;;;;-146.61;100.00;58846.50;6170189;23;20128;-80
2023/11/28 06:27:25;;;;;;;5.95;2.17;;;;;;;-146.61;100.00;58846.50;6171028;23;20021;-81
2023/11/28 06:29:52;;;;;;;4.65;2.33;;;;;;;-146.61;100.00;58846.50;6171892;23;20017;-81
2023/11/28 06:32:19;;;;;;;3.80;1.90;;;;;;;-146.61;100.00;58846.50;6176931;23;20028;-80
2023/11/28 06:34:49;;;;;;;6.53;2.17;;;;;;;-146.61;100.00;58846.50;6174123;23;20013;-81
2023/11/28 06:37:20;;;;;;;2.10;1.60;;;;;;;-146.61;100.00;58846.50;6146647;23;20025;-81
2023/11/28 06:39:47;;;;;;;3.90;2.15;;;;;;;-146.61;100.00;58846.50;6173975;23;20051;-79
2023/11/28 06:42:15;;;;;;;4.88;2.33;;;;;;;-146.61;100.00;58846.50;6177676;23;20025;-78
2023/11/28 06:44:43;;;;;;;2.17;1.65;;;;;;;-146.61;100.00;58846.50;6170023;23;20033;-80
2023/11/28 06:47:10;;;;;;;2.80;1.67;;;;;;;-146.61;100.00;58846.50;6172672;23;20124;-79
2023/11/28 06:49:36;;;;;;;3.03;2.13;;;;;;;-146.61;100.00;58846.50;6178162;23;20067;-81
2023/11/28 06:52:03;;;;;;;4.38;1.88;;;;;;;-146.61;100.00;58846.50;6178998;23;20060;-79
2023/11/28 06:54:30;;;;;;;2.92;1.67;;;;;;;-146.61;100.00;58846.50;6175823;23;20021;-82
2023/11/28 06:56:57;;;;;;;3.75;1.48;;;;;;;-146.61;100.00;58846.50;6159179;23;20017;-80
2023/11/28 06:59:26;;;;;;;4.85;1.70;;;;;;;-146.61;100.00;58846.50;6167054;23;20021;-80
2023/11/28 07:01:54;;;;;;;2.47;1.55;;;;;;;-146.61;100.00;58846.50;6171140;23;20052;-79
2023/11/28 07:04:23;;;;;;;6.22;2.35;;;;;;;-146.61;100.00;58846.50;6168450;23;20021;-77
2023/11/28 07:06:49;;;;;;;2.50;1.40;;;;;;;-146.61;100.00;58846.50;6169975;23;20024;-79
2023/11/28 07:09:19;;;;;;;2.17;1.52;;;;;;;-146.61;100.00;58846.50;6171618;23;20014;-80
2023/11/28 07:11:52;;;;;;;2.70;1.52;;;;;;;-146.61;100.00;58846.50;6155524;23;20630;-82
2023/11/28 07:14:20;;;;;;;1.98;1.67;;;;;;;-146.61;100.00;58846.50;6168972;23;20021;-79
2023/11/28 07:16:46;;;;;;;4.32;1.60;;;;;;;-146.61;100.00;58846.50;6168254;23;20020;-78
2023/11/28 07:19:15;;;;;;;2.13;1.58;;;;;;;-146.61;100.00;58846.50;6154279;23;20088;-82
2023/11/28 07:21:41;;;;;;;2.88;2.05;;;;;;;-146.61;100.00;58846.50;6168767;23;20017;-78
2023/11/28 07:24:08;;;;;;;2.67;1.15;;;;;;;-146.61;100.00;58846.50;6125059;23;20017;-79
2023/11/28 07:26:35;;;;;;;6.05;1.10;;;;;;;-146.61;100.00;58846.50;6139385;23;20021;-78
2023/11/28 07:29:01;;;;;;;2.88;1.38;;;;;;;-146.61;100.00;58846.50;6169243;23;20025;-78
2023/11/28 07:31:28;;;;;;;2.33;1.45;;;;;;;-146.61;100.00;58846.50;6176958;23;20048;-80
2023/11/28 07:33:55;;;;;;;3.45;2.08;;;;;;;-146.61;100.00;58846.50;6141959;23;20343;-79
2023/11/28 07:36:21;;;;;;;4.82;2.80;;;;;;;-146.61;100.00;58846.50;6169815;23;20021;-81
2023/11/28 07:38:50;;;;;;;5.45;2.10;;;;;;;-146.61;100.00;58846.50;6169983;23;20471;-78
2023/11/28 07:41:17;;;;;;;3.88;2.15;;;;;;;-146.61;100.00;58846.50;6170223;23;20017;-79
2023/11/28 07:43:44;;;;;;;2.63;1.85;;;;;;;-146.61;100.00;58846.50;6167030;23;20021;-79
2023/11/28 07:46:10;;;;;;;5.20;1.65;;;;;;;-146.61;100.00;58846.50;6144982;23;20425;-82
2023/11/28 07:48:39;;;;;;;3.55;1.73;;;;;;;-146.61;100.00;58846.50;6169484;23;20017;-79
2023/11/28 07:51:06;;;;;;;5.20;2.50;;;;;;;-146.61;100.00;58846.50;6170275;23;20025;-79
2023/11/28 07:53:33;;;;;;;5.20;2.33;;;;;;;-146.61;100.00;58846.50;6169154;23;20052;-79
2023/11/28 07:56:01;;;;;;;3.17;2.13;;;;;;;-146.61;100.00;58846.50;6144313;23;20143;-81
2023/11/28 07:58:30;;;;;;;3.10;2.13;;;;;;;-146.61;100.00;58846.50;6143871;23;20447;-79
2023/11/28 08:00:56;;;;;;;3.25;2.17;;;;;;;-146.61;100.00;58846.50;6168984;23;20067;-79
2023/11/28 08:03:23;;;;;;;1.65;1.48;;;;;;;-146.61;100.00;58846.50;6141561;23;20025;-79
2023/11/28 08:05:49;;;;;;;3.28;2.22;;;;;;;-146.61;100.00;58846.50;6166600;23;20021;-78
2023/11/28 08:08:16;;;;;;;2.13;1.50;;;;;;;-146.61;100.00;58846.50;6140587;23;20024;-80
2023/11/28 08:10:47;;;;;;;2.30;2.10;;;;;;;-146.61;100.00;58846.50;6136510;23;20053;-79
2023/11/28 08:13:15;;;;;;;3.72;1.63;;;;;;;-146.61;100.00;58846.50;6137406;23;20041;-79
2023/11/28 08:15:43;;;;;;;7.63;3.03;;;;;;;-146.61;100.00;58846.50;6137903;23;20060;-80
2023/11/28 08:18:09;;;;;;;2.53;1.60;;;;;;;-146.61;100.00;58846.50;6137787;23;20040;-80
2023/11/28 08:20:36;;;;;;;4.60;3.25;;;;;;;-146.61;100.00;58846.50;6138253;23;20027;-80
2023/11/28 08:23:03;;;;;;;5.07;1.98;;;;;;;-146.61;100.00;58846.50;6140926;23;20028;-81
2023/11/28 08:25:29;;;;;;;2.35;1.90;;;;;;;-146.61;100.00;58846.50;6142766;23;20442;-77
2023/11/28 08:27:56;;;;;;;3.33;2.08;;;;;;;-146.61;100.00;58846.50;6144255;23;20105;-79
2023/11/28 08:30:23;;;;;;;2.20;1.88;;;;;;;-146.61;100.00;58846.50;6150192;23;20113;-81
2023/11/28 08:32:49;;;;;;;2.15;1.67;;;;;;;-146.61;100.00;58846.50;6143427;23;20707;-79
2023/11/28 08:35:17;;;;;;;2.58;1.83;;;;;;;-146.61;100.00;58846.50;6143537;23;20424;-81
2023/11/28 08:37:48;;;;;;;1.63;1.52;;;;;;;-146.61;100.00;58846.50;6139680;23;20084;-81
2023/11/28 08:40:15;;;;;;;4.07;1.95;;;;;;;-146.61;100.00;58846.50;6139143;23;20064;-81
2023/11/28 08:42:45;;;;;;;2.05;1.48;;;;;;;-146.61;100.00;58846.50;6138226;23;20018;-80
2023/11/28 08:45:15;;;;;;;4.28;2.88;;;;;;;-146.61;100.00;58846.50;6164223;23;20021;-78
2023/11/28 08:47:43;;;;;;;3.58;1.58;;;;;;;-146.61;100.00;58846.50;6161618;23;20604;-78
2023/11/28 08:50:12;;;;;;;3.55;1.90;;;;;;;-146.61;100.00;58846.50;6138607;23;20026;-78
2023/11/28 08:52:38;;;;;;;4.13;2.10;;;;;;;-146.61;100.00;58846.50;6140474;23;20030;-79
2023/11/28 08:55:05;;;;;;;1.92;1.70;;;;;;;-146.61;100.00;58846.50;6141352;23;20443;-80
2023/11/28 08:57:34;;;;;;;3.03;1.83;;;;;;;-146.61;100.00;58846.50;6143153;23;20230;-79
2023/11/28 09:00:05;;;;;;;6.15;1.40;;;;;;;-146.61;100.00;58846.50;6140605;23;20028;-79
2023/11/28 09:02:32;;;;;;;4.32;1.85;;;;;;;-146.61;100.00;58846.50;6141597;23;20093;-80
2023/11/28 09:04:58;;;;;;;2.75;1.88;;;;;;;-146.61;100.00;58846.50;6140969;23;20100;-79
2023/11/28 09:07:25;;;;;;;4.07;1.50;;;;;;;-146.61;100.00;58846.50;6144237;23;20021;-80
2023/11/28 09:09:52;;;;;;;2.63;1.38;;;;;;;-146.61;100.00;58846.50;6144881;23;20071;-81
2023/11/28 09:12:19;;;;;;;1.20;1.10;;;;;;;-146.61;100.00;58846.50;6173117;23;20091;-80
2023/11/28 09:14:47;;;;;;;1.70;1.60;;;;;;;-146.61;100.00;58846.50;6171091;23;20065;-81
2023/11/28 09:17:14;;;;;;;3.17;1.60;;;;;;;-146.61;100.00;58846.50;6171078;23;20024;-81
2023/11/28 09:19:41;;;;;;;3.42;1.52;;;;;;;-146.61;100.00;58846.50;6145800;23;20025;-80
2023/11/28 09:22:07;;;;;;;4.72;1.50;;;;;;;-146.61;100.00;58846.50;6171747;23;20052;-79
2023/11/28 09:24:34;;;;;;;8.35;2.72;;;;;;;-146.61;100.00;58846.50;6145249;23;20024;-78
2023/11/28 09:27:01;;;;;;;4.72;2.55;;;;;;;-146.61;100.00;58846.50;6145978;23;20081;-80
2023/11/28 09:29:27;;;;;;;2.80;1.80;;;;;;;-146.61;100.00;58846.50;6147730;23;20028;-80
2023/11/28 09:31:54;;;;;;;2.42;1.67;;;;;;;-146.61;100.00;58846.50;6171199;23;20025;-79
2023/11/28 09:34:22;;;;;;;3.38;2.10;;;;;;;-146.61;100.00;58846.50;6170761;23;20025;-79
2023/11/28 09:36:48;;;;;;;3.03;1.33;;;;;;;-146.61;100.00;58846.50;6142712;23;20561;-81
2023/11/28 09:39:15;;;;;;;1.98;1.75;;;;;;;-146.61;100.00;58846.50;6170435;23;20040;-81
2023/11/28 09:41:44;;;;;;;2.05;1.80;;;;;;;-146.61;100.00;58846.50;6168960;23;20021;-80
2023/11/28 09:44:15;;;;;;;3.50;1.92;;;;;;;-146.61;100.00;58846.50;6169811;23;20124;-82
2023/11/28 09:46:52;;;;;;;2.50;1.85;;;;;;;-146.61;100.00;58846.50;6144677;23;20166;-80
2023/11/28 09:49:19;;;;;;;4.47;2.25;;;;;;;-146.61;100.00;58846.50;6171425;23;20056;-78
2023/11/28 09:51:53;;;;;;;2.28;2.00;;;;;;;-146.61;100.00;58846.50;6171163;23;20024;-79
2023/11/28 09:54:24;;;;;;;3.45;1.77;;;;;;;-146.61;100.00;58846.50;6171705;23;20039;-79
2023/11/28 09:56:52;;;;;;;3.95;2.03;;;;;;;-146.61;100.00;58846.50;6172025;23;20020;-82
2023/11/28 09:59:20;;;;;;;2.92;2.25;;;;;;;-146.61;100.00;58846.50;6144114;23;20063;-80
2023/11/28 10:01:46;;;;;;;2.45;2.30;;;;;;;-146.61;100.00;58846.50;6171653;23;20120;-83
2023/11/28 10:04:14;;;;;;;3.42;2.33;;;;;;;-146.61;100.00;58846.50;6169390;23;20025;-81
2023/11/28 10:06:43;;;;;;;2.85;1.88;;;;;;;-146.61;100.00;58846.50;6143798;23;20052;-80
2023/11/28 10:09:11;;;;;;;2.40;2.17;;;;;;;-146.61;100.00;58846.50;6169758;23;20017;-81
2023/11/28 10:11:40;;;;;;;2.72;1.75;;;;;;;-146.61;100.00;58846.50;6142520;23;20609;-78
2023/11/28 10:14:06;;;;;;;4.57;1.90;;;;;;;-146.61;100.00;58846.50;6171014;23;20562;-78
2023/11/28 10:16:46;;;;;;;6.45;3.90;;;;;;;-146.61;100.00;58846.50;6169314;23;20076;-78
2023/11/28 10:19:13;;;;;;;3.28;2.17;;;;;;;-146.61;100.00;58846.50;6142930;23;20320;-80
2023/11/28 10:21:43;;;;;;;4.68;2.38;;;;;;;-146.61;100.00;58846.50;6169990;23;20088;-81
2023/11/28 10:24:10;;;;;;;3.63;2.00;;;;;;;-146.61;100.00;58846.50;6144123;23;20021;-79
2023/11/28 10:26:40;;;;;;;1.92;1.77;;;;;;;-146.61;100.00;58846.50;6172943;23;20071;-79
2023/11/28 10:29:10;;;;;;;1.40;1.10;;;;;;;-146.61;100.00;58846.50;6144798;23;20025;-79
2023/11/28 10:31:38;;;;;;;3.00;1.80;;;;;;;-146.61;100.00;58846.50;6145644;23;20028;-81
2023/11/28 10:34:08;;;;;;;2.85;2.38;;;;;;;-146.61;100.00;58846.50;6171095;23;20017;-80
2023/11/28 10:36:45;;;;;;;2.45;1.70;;;;;;;-146.61;100.00;58846.50;6176792;23;20411;-78
2023/11/28 10:39:18;;;;;;;2.05;1.85;;;;;;;-146.61;100.00;58846.50;6172273;23;20013;-78
2023/11/28 10:41:45;;;;;;;2.63;2.00;;;;;;;-146.61;100.00;58846.50;6147130;23;20024;-77
2023/11/28 10:44:12;;;;;;;2.22;1.73;;;;;;;-146.61;100.00;58846.50;6147755;23;20013;-81
2023/11/28 10:46:40;;;;;;;2.50;1.70;;;;;;;-146.61;100.00;58846.50;6148293;23;20021;-79
2023/11/28 10:49:07;;;;;;;1.25;1.25;;;;;;;-146.61;100.00;58846.50;6146513;23;20462;-81
2023/11/28 10:51:35;;;;;;;1.88;1.23;;;;;;;-146.61;100.00;58846.50;6171577;23;20028;-79
2023/11/28 10:54:12;;;;;;;1.25;1.15;;;;;;;-146.61;100.00;58846.50;6118947;23;20103;-79
2023/11/28 10:56:47;;;;;;;1.08;1.00;;;;;;;-146.61;100.00;58846.50;6171055;23;20075;-78
2023/11/28 10:59:21;;;;;;;1.75;1.65;;;;;;;-146.61;100.00;58846.50;6170254;23;20024;-80
2023/11/28 11:01:49;;;;;;;1.70;1.60;;;;;;;-146.61;100.00;58846.50;6168543;23;20025;-82
2023/11/28 11:04:16;;;;;;;1.73;1.63;;;;;;;-146.61;100.00;58846.50;6170194;23;20013;-78
2023/11/28 11:06:43;;;;;;;1.95;1.80;;;;;;;-146.61;100.00;58846.50;6170663;23;20123;-79
2023/11/28 11:09:13;;;;;;;2.35;2.10;;;;;;;-146.61;100.00;58846.50;6169351;23;20541;-81
2023/11/28 11:11:43;;;;;;;2.35;1.55;;;;;;;-146.61;100.00;58846.50;6167915;23;20109;-81